Alessandra — ZGHC3 — position and weather

sailwx.info

Track history (hours):
 
Tides and Currents Weather Stations Pressure Air Temp Water Temp Dewpoint Dewpoint Depression Visibility Wind Speed Wind Dir Waves Ship Positions

Alessandra

Last reported at 2018-Apr-24 12:27 UTC. Time now 2018-Apr-24 12:40 UTC.
Position N 26°33' W 077°03'.

Length 48 m; draft 2.5 m.

Type: Pleasure craft. MMSI: 319123900.

Date/timePositionNaut miles runAvg speedWind from/ knotsBaromVisibWave heightAir tempDewpointWater temp
2018-Apr-24 12:27N 26°33' W 077°03'0 0.0
2018-Apr-24 11:54N 26°33' W 077°03'0 0.0
2018-Apr-24 11:30N 26°33' W 077°03'0 0.0
2018-Apr-24 11:00N 26°33' W 077°03'0 0.0
2018-Apr-24 10:30N 26°33' W 077°03'0 0.0
2018-Apr-24 10:00N 26°33' W 077°03'0 0.0
2018-Apr-24 09:30N 26°33' W 077°03'0 0.0
2018-Apr-24 09:00N 26°33' W 077°03'0 0.0
2018-Apr-24 08:30N 26°33' W 077°03'0 0.0
2018-Apr-24 08:00N 26°33' W 077°03'0 0.0
2018-Apr-24 07:30N 26°33' W 077°03'0 0.0
2018-Apr-24 07:00N 26°33' W 077°03'0 0.0
2018-Apr-24 06:30N 26°33' W 077°03'0 0.0
2018-Apr-24 06:00N 26°33' W 077°03'0 0.0
2018-Apr-24 05:30N 26°33' W 077°03'0 0.0
2018-Apr-24 05:00N 26°33' W 077°03'0 0.0
2018-Apr-24 04:30N 26°33' W 077°03'0 0.0
2018-Apr-24 04:00N 26°33' W 077°03'0 0.0
2018-Apr-24 03:30N 26°33' W 077°03'0 0.0
2018-Apr-24 03:00N 26°33' W 077°03'0 0.0
2018-Apr-24 02:30N 26°33' W 077°03'0 0.0
2018-Apr-24 02:00N 26°33' W 077°03'0 0.0
2018-Apr-24 01:30N 26°33' W 077°03'0 0.0
2018-Apr-24 01:00N 26°33' W 077°03'0 0.0
2018-Apr-24 00:30N 26°33' W 077°03'0 0.0
2018-Apr-24 00:00N 26°33' W 077°03'0 0.0
2018-Apr-23 23:30N 26°33' W 077°03'0 0.0
2018-Apr-23 23:00N 26°33' W 077°03'0 0.0
2018-Apr-23 22:30N 26°33' W 077°03'0 0.0
2018-Apr-23 22:00N 26°33' W 077°03'0 0.0
2018-Apr-23 21:30N 26°33' W 077°03'0 0.0
2018-Apr-23 21:00N 26°33' W 077°03'0 0.0
2018-Apr-23 20:30N 26°33' W 077°03'0 0.0
2018-Apr-23 20:00N 26°33' W 077°03'0 0.0
2018-Apr-23 19:30N 26°33' W 077°03'0 0.0
2018-Apr-23 18:59N 26°33' W 077°03'0 0.0
2018-Apr-23 18:29N 26°33' W 077°03'0 0.1
2018-Apr-23 17:59N 26°33' W 077°03'3 5.7
2018-Apr-23 17:30N 26°34' W 077°00'5 9.4
2018-Apr-23 17:00N 26°36' W 077°05'5 8.7
2018-Apr-23 16:26N 26°40' W 077°08'1 0.1
2018-Apr-23 00:05N 26°41' W 077°09'0 0.0
2018-Apr-22 23:53N 26°41' W 077°09'0 0.0
2018-Apr-22 23:29N 26°41' W 077°09'0 0.0
2018-Apr-22 19:47N 26°41' W 077°09'0 0.0
2018-Apr-22 18:23N 26°41' W 077°09'0 0.0
2018-Apr-22 15:11N 26°41' W 077°09'0 0.0
2018-Apr-22 14:47N 26°41' W 077°09'0 0.0
2018-Apr-21 17:16N 26°41' W 077°09'0 0.0
2018-Apr-21 16:58N 26°41' W 077°09'0 0.0
2018-Apr-21 16:28N 26°41' W 077°09'0 0.0
2018-Apr-21 15:40N 26°41' W 077°09'0 0.0
2018-Apr-21 15:25N 26°41' W 077°09'1 1.0
2018-Apr-21 14:00N 26°41' W 077°10'0 0.0
2018-Apr-21 09:57N 26°41' W 077°10'0 0.0
2018-Apr-21 09:27N 26°41' W 077°10'0 0.0
2018-Apr-21 08:57N 26°41' W 077°10'0 0.0
2018-Apr-21 08:30N 26°41' W 077°10'0 0.0
2018-Apr-21 07:57N 26°41' W 077°10'0 0.0
2018-Apr-21 07:30N 26°41' W 077°10'0 0.0
2018-Apr-21 06:57N 26°41' W 077°10'0 0.0
2018-Apr-21 06:30N 26°41' W 077°10'0 0.0
2018-Apr-21 06:00N 26°41' W 077°10'0 0.0
2018-Apr-21 05:30N 26°41' W 077°10'0 0.0
2018-Apr-21 04:57N 26°41' W 077°10'0 0.0
2018-Apr-21 04:30N 26°41' W 077°10'0 0.0
2018-Apr-21 04:00N 26°41' W 077°10'0 0.0
2018-Apr-21 03:27N 26°41' W 077°10'0 0.0
2018-Apr-21 03:00N 26°41' W 077°10'0 0.0
2018-Apr-21 02:30N 26°41' W 077°10'0 0.0
2018-Apr-21 02:00N 26°41' W 077°10'0 0.0
2018-Apr-21 01:27N 26°41' W 077°10'0 0.0
2018-Apr-21 00:54N 26°41' W 077°10'0 0.0
2018-Apr-21 00:15N 26°41' W 077°10'0 0.0
2018-Apr-21 00:00N 26°41' W 077°10'0 0.0
2018-Apr-20 23:21N 26°41' W 077°10'0 0.0
2018-Apr-20 23:00N 26°41' W 077°10'0 0.0
2018-Apr-20 22:30N 26°41' W 077°10'0 0.0
2018-Apr-20 22:00N 26°41' W 077°10'0 0.0
2018-Apr-20 21:26N 26°41' W 077°10'0 0.0
2018-Apr-20 20:59N 26°41' W 077°10'0 0.0
2018-Apr-20 20:26N 26°41' W 077°10'0 0.0
2018-Apr-20 19:59N 26°41' W 077°10'0 0.1
2018-Apr-20 19:29N 26°41' W 077°10'0 0.0
2018-Apr-20 18:59N 26°41' W 077°10'0 0.0
2018-Apr-20 18:20N 26°41' W 077°10'0 0.0
2018-Apr-20 17:53N 26°41' W 077°10'0 0.0
2018-Apr-20 15:44N 26°41' W 077°10'0 0.0
2018-Apr-20 14:02N 26°41' W 077°10'0 0.0
2018-Apr-20 13:44N 26°41' W 077°10'0 0.0
2018-Apr-20 13:26N 26°41' W 077°10'0 0.0
2018-Apr-20 12:38N 26°41' W 077°10'0 0.0
2018-Apr-20 12:26N 26°41' W 077°10'0 0.0
2018-Apr-20 11:56N 26°41' W 077°10'0 0.0
2018-Apr-20 11:29N 26°41' W 077°10'0 0.0
2018-Apr-20 10:59N 26°41' W 077°10'0 0.0
2018-Apr-20 10:26N 26°41' W 077°10'0 0.0
2018-Apr-20 09:47N 26°41' W 077°10'0 0.0
2018-Apr-20 09:26N 26°41' W 077°10'0 0.0
2018-Apr-20 08:56N 26°41' W 077°10'0 0.0
2018-Apr-20 07:23N 26°41' W 077°10'0 0.0
2018-Apr-20 06:32N 26°41' W 077°10'0 0.0
2018-Apr-20 06:23N 26°41' W 077°10'0 0.0
2018-Apr-20 04:20N 26°41' W 077°10'0 0.0
2018-Apr-20 03:02N 26°41' W 077°10'0 0.0
2018-Apr-20 02:41N 26°41' W 077°10'0 0.0
2018-Apr-20 02:26N 26°41' W 077°10'0 0.0
2018-Apr-20 01:56N 26°41' W 077°10'0 0.0
2018-Apr-20 00:50N 26°41' W 077°10'0 0.0
2018-Apr-20 00:29N 26°41' W 077°10'0 0.0
2018-Apr-19 23:56N 26°41' W 077°10'0 0.0
2018-Apr-19 23:29N 26°41' W 077°10'0 0.0
2018-Apr-19 22:50N 26°41' W 077°10'0 0.0
2018-Apr-19 21:44N 26°41' W 077°10'0 0.0
2018-Apr-19 21:29N 26°41' W 077°10'  
Track history (hours):
 
Tides and Currents Weather Stations Pressure Air Temp Water Temp Dewpoint Dewpoint Depression Visibility Wind Speed Wind Dir Waves Ship Positions

Alessandra

Last reported at 2018-Apr-24 12:27 UTC. Time now 2018-Apr-24 12:40 UTC.
Position N 26°33' W 077°03'.

Length 48 m; draft 2.5 m.

Type: Pleasure craft. MMSI: 319123900.

Date/timePositionNaut miles runAvg speedWind from/ knotsBaromVisibWave heightAir tempDewpointWater temp
2018-Apr-24 12:27N 26°33' W 077°03'0 0.0
2018-Apr-24 11:54N 26°33' W 077°03'0 0.0
2018-Apr-24 11:30N 26°33' W 077°03'0 0.0
2018-Apr-24 11:00N 26°33' W 077°03'0 0.0
2018-Apr-24 10:30N 26°33' W 077°03'0 0.0
2018-Apr-24 10:00N 26°33' W 077°03'0 0.0
2018-Apr-24 09:30N 26°33' W 077°03'0 0.0
2018-Apr-24 09:00N 26°33' W 077°03'0 0.0
2018-Apr-24 08:30N 26°33' W 077°03'0 0.0
2018-Apr-24 08:00N 26°33' W 077°03'0 0.0
2018-Apr-24 07:30N 26°33' W 077°03'0 0.0
2018-Apr-24 07:00N 26°33' W 077°03'0 0.0
2018-Apr-24 06:30N 26°33' W 077°03'0 0.0
2018-Apr-24 06:00N 26°33' W 077°03'0 0.0
2018-Apr-24 05:30N 26°33' W 077°03'0 0.0
2018-Apr-24 05:00N 26°33' W 077°03'0 0.0
2018-Apr-24 04:30N 26°33' W 077°03'0 0.0
2018-Apr-24 04:00N 26°33' W 077°03'0 0.0
2018-Apr-24 03:30N 26°33' W 077°03'0 0.0
2018-Apr-24 03:00N 26°33' W 077°03'0 0.0
2018-Apr-24 02:30N 26°33' W 077°03'0 0.0
2018-Apr-24 02:00N 26°33' W 077°03'0 0.0
2018-Apr-24 01:30N 26°33' W 077°03'0 0.0
2018-Apr-24 01:00N 26°33' W 077°03'0 0.0
2018-Apr-24 00:30N 26°33' W 077°03'0 0.0
2018-Apr-24 00:00N 26°33' W 077°03'0 0.0
2018-Apr-23 23:30N 26°33' W 077°03'0 0.0
2018-Apr-23 23:00N 26°33' W 077°03'0 0.0
2018-Apr-23 22:30N 26°33' W 077°03'0 0.0
2018-Apr-23 22:00N 26°33' W 077°03'0 0.0
2018-Apr-23 21:30N 26°33' W 077°03'0 0.0
2018-Apr-23 21:00N 26°33' W 077°03'0 0.0
2018-Apr-23 20:30N 26°33' W 077°03'0 0.0
2018-Apr-23 20:00N 26°33' W 077°03'0 0.0
2018-Apr-23 19:30N 26°33' W 077°03'0 0.0
2018-Apr-23 18:59N 26°33' W 077°03'0 0.0
2018-Apr-23 18:29N 26°33' W 077°03'0 0.1
2018-Apr-23 17:59N 26°33' W 077°03'3 5.7
2018-Apr-23 17:30N 26°34' W 077°00'5 9.4
2018-Apr-23 17:00N 26°36' W 077°05'5 8.7
2018-Apr-23 16:26N 26°40' W 077°08'1 0.1
2018-Apr-23 00:05N 26°41' W 077°09'0 0.0
2018-Apr-22 23:53N 26°41' W 077°09'0 0.0
2018-Apr-22 23:29N 26°41' W 077°09'0 0.0
2018-Apr-22 19:47N 26°41' W 077°09'0 0.0
2018-Apr-22 18:23N 26°41' W 077°09'0 0.0
2018-Apr-22 15:11N 26°41' W 077°09'0 0.0
2018-Apr-22 14:47N 26°41' W 077°09'0 0.0
2018-Apr-21 17:16N 26°41' W 077°09'0 0.0
2018-Apr-21 16:58N 26°41' W 077°09'0 0.0
2018-Apr-21 16:28N 26°41' W 077°09'0 0.0
2018-Apr-21 15:40N 26°41' W 077°09'0 0.0
2018-Apr-21 15:25N 26°41' W 077°09'1 1.0
2018-Apr-21 14:00N 26°41' W 077°10'0 0.0
2018-Apr-21 09:57N 26°41' W 077°10'0 0.0
2018-Apr-21 09:27N 26°41' W 077°10'0 0.0
2018-Apr-21 08:57N 26°41' W 077°10'0 0.0
2018-Apr-21 08:30N 26°41' W 077°10'0 0.0
2018-Apr-21 07:57N 26°41' W 077°10'0 0.0
2018-Apr-21 07:30N 26°41' W 077°10'0 0.0
2018-Apr-21 06:57N 26°41' W 077°10'0 0.0
2018-Apr-21 06:30N 26°41' W 077°10'0 0.0
2018-Apr-21 06:00N 26°41' W 077°10'0 0.0
2018-Apr-21 05:30N 26°41' W 077°10'0 0.0
2018-Apr-21 04:57N 26°41' W 077°10'0 0.0
2018-Apr-21 04:30N 26°41' W 077°10'0 0.0
2018-Apr-21 04:00N 26°41' W 077°10'0 0.0
2018-Apr-21 03:27N 26°41' W 077°10'0 0.0
2018-Apr-21 03:00N 26°41' W 077°10'0 0.0
2018-Apr-21 02:30N 26°41' W 077°10'0 0.0
2018-Apr-21 02:00N 26°41' W 077°10'0 0.0
2018-Apr-21 01:27N 26°41' W 077°10'0 0.0
2018-Apr-21 00:54N 26°41' W 077°10'0 0.0
2018-Apr-21 00:15N 26°41' W 077°10'0 0.0
2018-Apr-21 00:00N 26°41' W 077°10'0 0.0
2018-Apr-20 23:21N 26°41' W 077°10'0 0.0
2018-Apr-20 23:00N 26°41' W 077°10'0 0.0
2018-Apr-20 22:30N 26°41' W 077°10'0 0.0
2018-Apr-20 22:00N 26°41' W 077°10'0 0.0
2018-Apr-20 21:26N 26°41' W 077°10'0 0.0
2018-Apr-20 20:59N 26°41' W 077°10'0 0.0
2018-Apr-20 20:26N 26°41' W 077°10'0 0.0
2018-Apr-20 19:59N 26°41' W 077°10'0 0.1
2018-Apr-20 19:29N 26°41' W 077°10'0 0.0
2018-Apr-20 18:59N 26°41' W 077°10'0 0.0
2018-Apr-20 18:20N 26°41' W 077°10'0 0.0
2018-Apr-20 17:53N 26°41' W 077°10'0 0.0
2018-Apr-20 15:44N 26°41' W 077°10'0 0.0
2018-Apr-20 14:02N 26°41' W 077°10'0 0.0
2018-Apr-20 13:44N 26°41' W 077°10'0 0.0
2018-Apr-20 13:26N 26°41' W 077°10'0 0.0
2018-Apr-20 12:38N 26°41' W 077°10'0 0.0
2018-Apr-20 12:26N 26°41' W 077°10'0 0.0
2018-Apr-20 11:56N 26°41' W 077°10'0 0.0
2018-Apr-20 11:29N 26°41' W 077°10'0 0.0
2018-Apr-20 10:59N 26°41' W 077°10'0 0.0
2018-Apr-20 10:26N 26°41' W 077°10'0 0.0
2018-Apr-20 09:47N 26°41' W 077°10'0 0.0
2018-Apr-20 09:26N 26°41' W 077°10'0 0.0
2018-Apr-20 08:56N 26°41' W 077°10'0 0.0
2018-Apr-20 07:23N 26°41' W 077°10'0 0.0
2018-Apr-20 06:32N 26°41' W 077°10'0 0.0
2018-Apr-20 06:23N 26°41' W 077°10'0 0.0
2018-Apr-20 04:20N 26°41' W 077°10'0 0.0
2018-Apr-20 03:02N 26°41' W 077°10'0 0.0
2018-Apr-20 02:41N 26°41' W 077°10'0 0.0
2018-Apr-20 02:26N 26°41' W 077°10'0 0.0
2018-Apr-20 01:56N 26°41' W 077°10'0 0.0
2018-Apr-20 00:50N 26°41' W 077°10'0 0.0
2018-Apr-20 00:29N 26°41' W 077°10'0 0.0
2018-Apr-19 23:56N 26°41' W 077°10'0 0.0
2018-Apr-19 23:29N 26°41' W 077°10'0 0.0
2018-Apr-19 22:50N 26°41' W 077°10'0 0.0
2018-Apr-19 21:44N 26°41' W 077°10'0 0.0
2018-Apr-19 21:29N 26°41' W 077°10'  

Dump ship's entire track history